createdAt,value
2022-12-15T00:02:26.202Z,27.00
2022-12-15T00:05:11.820Z,25.07
2022-12-15T00:07:57.588Z,29.60
2022-12-15T00:10:43.313Z,25.40
2022-12-15T00:13:31.044Z,25.03
2022-12-15T00:16:16.837Z,26.23
2022-12-15T00:19:02.260Z,24.50
2022-12-15T00:21:47.836Z,24.47
2022-12-15T00:24:33.529Z,23.70
2022-12-15T00:27:19.268Z,22.00
2022-12-15T00:30:05.470Z,22.67
2022-12-15T00:32:51.586Z,24.10
2022-12-15T00:35:37.501Z,28.20
2022-12-15T00:38:27.993Z,21.87
2022-12-15T00:40:59.726Z,26.63
2022-12-15T00:43:35.103Z,25.63
2022-12-15T00:46:21.490Z,26.10
2022-12-15T00:48:48.852Z,27.27
2022-12-15T00:51:16.710Z,21.83
2022-12-15T00:54:02.349Z,25.60
2022-12-15T00:56:48.191Z,23.93
2022-12-15T00:59:34.284Z,27.50
2022-12-15T01:02:20.677Z,26.57
2022-12-15T01:05:07.171Z,25.37
2022-12-15T01:07:52.905Z,31.53
2022-12-15T01:10:38.854Z,26.93
2022-12-15T01:13:25.065Z,23.93
2022-12-15T01:16:10.606Z,29.97
2022-12-15T01:18:56.185Z,28.50
2022-12-15T01:21:25.210Z,25.27
2022-12-15T01:23:52.926Z,28.50
2022-12-15T01:26:20.446Z,28.53
2022-12-15T01:28:47.428Z,26.20
2022-12-15T01:31:14.758Z,29.57
2022-12-15T01:33:43.928Z,24.23
2022-12-15T01:36:11.834Z,28.90
2022-12-15T01:38:38.886Z,24.20
2022-12-15T01:41:09.331Z,25.93
2022-12-15T01:43:39.524Z,27.17
2022-12-15T01:46:21.266Z,26.20
2022-12-15T01:48:57.496Z,24.03
2022-12-15T01:51:30.494Z,24.60
2022-12-15T01:54:07.301Z,24.47
2022-12-15T01:56:39.043Z,28.70
2022-12-15T01:59:10.154Z,26.57
2022-12-15T02:01:37.352Z,26.97
2022-12-15T02:04:05.048Z,26.17
2022-12-15T02:06:32.260Z,27.37
2022-12-15T02:09:01.290Z,28.43
2022-12-15T02:11:46.077Z,27.40
2022-12-15T02:14:20.766Z,27.90
2022-12-15T02:16:59.673Z,27.30
2022-12-15T02:19:51.268Z,26.20
2022-12-15T02:22:30.286Z,29.37
2022-12-15T02:25:21.742Z,28.57
2022-12-15T02:28:17.799Z,27.07
2022-12-15T02:31:13.420Z,31.63
2022-12-15T02:34:05.905Z,27.10
2022-12-15T02:36:42.978Z,28.03
2022-12-15T02:39:12.081Z,31.70
2022-12-15T02:41:40.724Z,26.77
2022-12-15T02:44:19.898Z,27.57
2022-12-15T02:47:06.026Z,23.83
2022-12-15T02:50:02.594Z,32.63
2022-12-15T02:53:16.871Z,27.37
2022-12-15T02:56:05.022Z,25.27
2022-12-15T02:58:37.924Z,25.43
2022-12-15T03:01:21.251Z,30.60
2022-12-15T03:03:50.085Z,24.63
2022-12-15T03:06:17.493Z,27.20
2022-12-15T03:08:44.531Z,22.93
2022-12-15T03:11:11.687Z,25.43
2022-12-15T03:13:38.724Z,26.67
2022-12-15T03:16:06.068Z,30.20
2022-12-15T03:18:33.145Z,42.83
2022-12-15T03:21:00.226Z,27.60
2022-12-15T03:23:27.376Z,31.37
2022-12-15T03:25:55.812Z,29.60
2022-12-15T03:28:23.142Z,28.17
2022-12-15T03:30:50.896Z,26.00
2022-12-15T03:33:18.445Z,23.23
2022-12-15T03:35:45.455Z,26.07
2022-12-15T03:38:12.477Z,23.70
2022-12-15T03:40:39.586Z,23.57
2022-12-15T03:43:06.597Z,23.23
2022-12-15T03:45:33.656Z,24.70
2022-12-15T03:48:00.821Z,24.00
2022-12-15T03:50:29.050Z,25.27
2022-12-15T03:53:01.305Z,25.17
2022-12-15T03:55:31.684Z,30.57
2022-12-15T03:57:59.422Z,27.83
2022-12-15T04:00:26.963Z,30.63
2022-12-15T04:02:54.237Z,25.03
2022-12-15T04:05:26.156Z,24.40
2022-12-15T04:07:57.423Z,24.73
2022-12-15T04:10:30.190Z,22.30
2022-12-15T04:13:02.766Z,22.10
2022-12-15T04:15:30.012Z,23.23
2022-12-15T04:17:57.328Z,24.40
2022-12-15T04:20:24.878Z,28.00
2022-12-15T04:22:51.992Z,27.63
2022-12-15T04:25:40.515Z,27.43
2022-12-15T04:28:27.580Z,27.50
2022-12-15T04:31:26.807Z,25.93
2022-12-15T04:34:16.001Z,24.30
2022-12-15T04:37:04.695Z,26.43
2022-12-15T04:39:50.373Z,25.97
2022-12-15T04:42:37.053Z,28.10
2022-12-15T04:45:25.220Z,27.67
2022-12-15T04:48:10.650Z,27.17
2022-12-15T04:50:56.466Z,26.23
2022-12-15T04:53:42.233Z,25.43
2022-12-15T04:56:32.833Z,24.20
2022-12-15T04:59:18.765Z,27.40
2022-12-15T05:02:04.699Z,25.80
2022-12-15T05:04:50.434Z,24.10
2022-12-15T05:07:36.025Z,24.30
2022-12-15T05:10:21.618Z,29.67
2022-12-15T05:13:07.342Z,26.53
2022-12-15T05:15:53.232Z,27.53
2022-12-15T05:18:39.423Z,26.80
2022-12-15T05:21:25.838Z,30.20
2022-12-15T05:24:11.711Z,28.37
2022-12-15T05:26:57.271Z,24.27
2022-12-15T05:29:42.706Z,26.43
2022-12-15T05:32:09.782Z,30.17
2022-12-15T05:34:38.221Z,27.27
2022-12-15T05:37:07.281Z,29.50
2022-12-15T05:39:34.333Z,30.67
2022-12-15T05:42:01.391Z,27.47
2022-12-15T05:44:28.878Z,30.23
2022-12-15T05:46:56.115Z,31.47
2022-12-15T05:49:25.944Z,26.33
2022-12-15T05:51:52.991Z,28.23
2022-12-15T05:54:20.484Z,27.73
2022-12-15T05:56:50.544Z,24.57
2022-12-15T05:59:19.301Z,24.73
2022-12-15T06:01:46.700Z,25.90
2022-12-15T06:04:14.040Z,26.70
2022-12-15T06:06:41.979Z,25.87
2022-12-15T06:09:09.792Z,26.40
2022-12-15T06:11:37.690Z,32.30
2022-12-15T06:14:05.099Z,25.67
2022-12-15T06:16:32.601Z,26.87
2022-12-15T06:19:01.821Z,22.97
2022-12-15T06:21:37.784Z,30.87
2022-12-15T06:24:06.035Z,30.93
2022-12-15T06:26:34.933Z,27.33
2022-12-15T06:29:03.441Z,27.70
2022-12-15T06:31:31.881Z,24.70
2022-12-15T06:34:02.010Z,33.03
2022-12-15T06:36:30.949Z,27.23
2022-12-15T06:39:06.191Z,31.07
2022-12-15T06:41:33.494Z,28.53
2022-12-15T06:44:01.434Z,30.77
2022-12-15T06:46:30.215Z,31.43
2022-12-15T06:48:58.429Z,33.47
2022-12-15T06:51:25.970Z,36.57
2022-12-15T06:53:56.490Z,34.90
2022-12-15T06:56:34.476Z,34.03
2022-12-15T06:59:05.480Z,36.40
2022-12-15T07:01:32.951Z,32.90
2022-12-15T07:04:01.579Z,33.53
2022-12-15T07:06:36.413Z,35.67
2022-12-15T07:09:07.333Z,33.10
2022-12-15T07:11:34.481Z,37.70
2022-12-15T07:14:01.478Z,33.83
2022-12-15T07:16:28.593Z,35.03
2022-12-15T07:18:55.694Z,31.53
2022-12-15T07:21:22.771Z,33.13
2022-12-15T07:23:55.303Z,32.70
2022-12-15T07:26:23.783Z,32.00
2022-12-15T07:28:51.054Z,34.33
2022-12-15T07:31:18.235Z,34.17
2022-12-15T07:33:45.453Z,38.07
2022-12-15T07:36:13.264Z,38.87
2022-12-15T07:38:40.459Z,38.30
2022-12-15T07:41:08.534Z,37.10
2022-12-15T07:43:36.787Z,37.17
2022-12-15T07:46:05.329Z,36.57
2022-12-15T07:48:33.416Z,37.90
2022-12-15T07:51:11.098Z,37.43
2022-12-15T07:53:40.007Z,40.77
2022-12-15T07:56:09.399Z,43.80
2022-12-15T07:58:37.973Z,37.47
2022-12-15T08:01:10.375Z,42.17
2022-12-15T08:03:38.693Z,36.47
2022-12-15T08:06:07.732Z,40.60
2022-12-15T08:08:35.855Z,41.87
2022-12-15T08:11:10.727Z,39.13
2022-12-15T08:14:02.009Z,35.90
2022-12-15T08:16:26.282Z,34.50
2022-12-15T08:18:53.884Z,37.17
2022-12-15T08:21:20.943Z,36.73
2022-12-15T08:23:48.193Z,36.40
2022-12-15T08:26:17.908Z,33.17
2022-12-15T08:28:45.156Z,42.60
2022-12-15T08:31:21.675Z,37.03
2022-12-15T08:33:49.479Z,38.70
2022-12-15T08:36:19.242Z,40.13
2022-12-15T08:38:47.370Z,36.00
2022-12-15T08:41:21.270Z,38.20
2022-12-15T08:43:49.628Z,36.10
2022-12-15T08:46:18.374Z,40.20
2022-12-15T08:48:45.899Z,37.30
2022-12-15T08:51:13.326Z,41.43
2022-12-15T08:53:42.413Z,37.10
2022-12-15T08:56:12.560Z,39.87
2022-12-15T08:58:40.274Z,40.43
2022-12-15T09:01:16.084Z,38.80
2022-12-15T09:03:47.738Z,38.70
2022-12-15T09:06:20.911Z,40.93
2022-12-15T09:08:48.456Z,44.77
2022-12-15T09:11:17.742Z,37.63
2022-12-15T09:13:44.813Z,42.23
2022-12-15T09:16:16.083Z,46.17
2022-12-15T09:18:45.892Z,45.63
2022-12-15T09:21:13.801Z,42.13
2022-12-15T09:23:41.128Z,36.73
2022-12-15T09:26:14.386Z,41.77
2022-12-15T09:28:42.996Z,41.37
2022-12-15T09:31:10.048Z,41.00
2022-12-15T09:33:37.909Z,45.87
2022-12-15T09:36:05.931Z,42.20
2022-12-15T09:38:38.345Z,43.93
2022-12-15T09:41:15.025Z,48.07
2022-12-15T09:43:47.866Z,44.43
2022-12-15T09:46:27.754Z,48.37
2022-12-15T09:48:58.344Z,58.40
2022-12-15T09:51:39.449Z,45.93
2022-12-15T09:54:08.498Z,50.17
2022-12-15T09:56:49.686Z,48.60
2022-12-15T09:59:29.903Z,48.43
2022-12-15T10:02:12.278Z,46.17
2022-12-15T10:05:05.396Z,45.23
2022-12-15T10:07:43.870Z,45.67
2022-12-15T10:10:21.600Z,48.87
2022-12-15T10:13:01.143Z,46.13
2022-12-15T10:15:38.028Z,44.17
2022-12-15T10:18:28.479Z,47.40
2022-12-15T10:20:56.996Z,52.00
2022-12-15T10:23:25.826Z,45.77
2022-12-15T10:26:11.770Z,48.80
2022-12-15T10:29:33.810Z,52.57
2022-12-15T10:32:14.172Z,52.73
2022-12-15T10:34:41.322Z,50.97
2022-12-15T10:37:17.371Z,47.87
2022-12-15T10:39:46.821Z,46.23
2022-12-15T10:42:23.484Z,50.30
2022-12-15T10:44:55.799Z,54.13
2022-12-15T10:47:31.575Z,46.80
2022-12-15T10:50:25.131Z,53.80
2022-12-15T10:52:52.451Z,50.03
2022-12-15T10:55:33.213Z,48.57
2022-12-15T10:58:02.519Z,52.73
2022-12-15T11:00:32.077Z,45.57
2022-12-15T11:02:59.949Z,46.70
2022-12-15T11:05:27.748Z,49.17
2022-12-15T11:08:12.838Z,50.87
2022-12-15T11:11:09.415Z,45.23
2022-12-15T11:13:37.209Z,48.27
2022-12-15T11:16:16.702Z,50.10
2022-12-15T11:19:02.571Z,49.23
2022-12-15T11:21:38.827Z,49.83
2022-12-15T11:24:21.608Z,49.40
2022-12-15T11:27:12.800Z,47.50
2022-12-15T11:29:39.783Z,46.67
2022-12-15T11:32:07.663Z,50.60
2022-12-15T11:34:53.551Z,46.80
2022-12-15T11:37:41.424Z,47.97
2022-12-15T11:40:20.653Z,48.20
2022-12-15T11:43:05.665Z,48.53
2022-12-15T11:45:52.226Z,47.13
2022-12-15T11:48:22.573Z,49.50
2022-12-15T11:50:55.723Z,51.73
2022-12-15T11:53:44.364Z,49.67
2022-12-15T11:56:29.145Z,58.03
2022-12-15T11:59:42.984Z,49.63
2022-12-15T12:02:25.183Z,50.87
2022-12-15T12:05:04.804Z,54.80
2022-12-15T12:07:42.477Z,54.10
2022-12-15T12:10:43.595Z,54.90
2022-12-15T12:13:31.430Z,52.50
2022-12-15T12:16:18.308Z,51.40
2022-12-15T12:18:54.629Z,57.30
2022-12-15T12:21:34.735Z,55.83
2022-12-15T12:24:29.887Z,56.00
2022-12-15T12:27:02.532Z,53.40
2022-12-15T12:29:45.609Z,51.13
2022-12-15T12:32:34.457Z,59.73
2022-12-15T12:35:35.313Z,55.30
2022-12-15T12:38:07.622Z,52.23
2022-12-15T12:40:40.779Z,52.90
2022-12-15T12:43:32.126Z,49.93
2022-12-15T12:46:05.857Z,54.37
2022-12-15T12:49:11.055Z,49.63
2022-12-15T12:51:41.225Z,59.67
2022-12-15T12:54:31.262Z,47.93
2022-12-15T12:56:58.663Z,47.40
2022-12-15T12:59:28.880Z,51.53
2022-12-15T13:02:14.741Z,52.17
2022-12-15T13:04:49.410Z,51.47
2022-12-15T13:07:40.422Z,50.13
2022-12-15T13:10:13.470Z,49.20
2022-12-15T13:12:55.639Z,49.70
2022-12-15T13:15:31.407Z,50.23
2022-12-15T13:18:12.197Z,51.77
2022-12-15T13:20:40.359Z,47.73
2022-12-15T13:23:19.624Z,46.83
2022-12-15T13:28:39.840Z,51.17
2022-12-15T13:31:20.823Z,49.10
2022-12-15T13:33:50.861Z,52.83
2022-12-15T13:36:39.451Z,47.43
2022-12-15T13:39:12.562Z,52.83
2022-12-15T13:42:00.271Z,52.10
2022-12-15T13:44:35.368Z,52.87
2022-12-15T13:47:20.249Z,45.77
2022-12-15T13:50:02.064Z,57.83
2022-12-15T13:53:16.725Z,61.73
2022-12-15T13:55:28.103Z,51.73
2022-12-15T13:58:03.722Z,49.87
2022-12-15T14:00:31.416Z,52.37
2022-12-15T14:03:12.315Z,52.83
2022-12-15T14:05:43.081Z,48.43
2022-12-15T14:08:14.884Z,60.73
2022-12-15T14:10:45.913Z,50.57
2022-12-15T14:13:21.348Z,55.23
2022-12-15T14:16:04.525Z,55.67
2022-12-15T14:18:35.964Z,60.10
2022-12-15T14:21:07.524Z,54.37
2022-12-15T14:24:19.175Z,52.27
2022-12-15T14:26:32.201Z,57.03
2022-12-15T14:29:02.697Z,53.83
2022-12-15T14:31:31.044Z,52.00
2022-12-15T14:34:02.858Z,54.53
2022-12-15T14:36:31.827Z,58.10
2022-12-15T14:39:02.011Z,56.97
2022-12-15T14:41:33.460Z,58.87
2022-12-15T14:47:26.992Z,53.43
2022-12-15T14:49:56.680Z,60.93
2022-12-15T14:52:29.889Z,59.43
2022-12-15T14:55:02.397Z,63.03
2022-12-15T14:57:43.683Z,60.23
2022-12-15T15:00:50.091Z,60.87
2022-12-15T15:03:13.112Z,50.27
2022-12-15T15:03:26.235Z,59.60
2022-12-15T15:06:00.430Z,56.93
2022-12-15T15:08:35.082Z,55.43
2022-12-15T15:11:19.476Z,55.70
2022-12-15T15:13:47.101Z,64.57
2022-12-15T15:16:18.491Z,68.13
2022-12-15T15:18:50.451Z,59.67
2022-12-15T15:21:22.309Z,62.43
2022-12-15T15:24:09.513Z,60.23
2022-12-15T15:26:37.318Z,56.43
2022-12-15T15:29:04.573Z,54.20
2022-12-15T15:31:41.253Z,54.13
2022-12-15T15:34:09.434Z,51.07
2022-12-15T15:36:40.041Z,47.87
2022-12-15T15:39:15.744Z,47.37
2022-12-15T15:41:42.997Z,54.00
2022-12-15T15:44:15.017Z,53.13
2022-12-15T15:46:52.520Z,49.97
2022-12-15T15:49:21.700Z,51.50
2022-12-15T15:51:49.063Z,49.43
2022-12-15T15:54:22.174Z,48.63
2022-12-15T15:56:49.159Z,51.07
2022-12-15T15:59:18.688Z,48.03
2022-12-15T16:01:49.858Z,44.57
2022-12-15T16:04:17.122Z,38.00
2022-12-15T16:06:47.659Z,41.73
2022-12-15T16:09:17.006Z,36.33
2022-12-15T16:11:45.872Z,30.60
2022-12-15T16:14:14.466Z,30.00
2022-12-15T16:16:42.030Z,28.43
2022-12-15T16:19:09.259Z,30.20
2022-12-15T16:21:36.919Z,28.47
2022-12-15T16:24:13.926Z,29.70
2022-12-15T16:26:47.315Z,33.93
2022-12-15T16:29:20.121Z,30.57
2022-12-15T16:31:47.427Z,29.37
2022-12-15T16:34:19.243Z,29.03
2022-12-15T16:36:46.655Z,23.97
2022-12-15T16:39:29.019Z,24.13
2022-12-15T16:41:56.920Z,27.23
2022-12-15T16:44:29.372Z,21.83
2022-12-15T16:46:57.413Z,18.53
2022-12-15T16:49:25.321Z,20.53
2022-12-15T16:51:53.892Z,24.10
2022-12-15T16:54:24.550Z,21.20
2022-12-15T16:56:53.220Z,20.73
2022-12-15T16:59:33.046Z,18.67
2022-12-15T17:02:02.091Z,17.83
2022-12-15T17:04:29.230Z,20.07
2022-12-15T17:06:56.202Z,18.43
2022-12-15T17:09:25.588Z,19.70
2022-12-15T17:11:53.370Z,22.23
2022-12-15T17:14:20.411Z,18.20
2022-12-15T17:16:47.448Z,19.37
2022-12-15T17:19:20.727Z,20.43
2022-12-15T17:21:52.988Z,21.10
2022-12-15T17:24:22.291Z,17.53
2022-12-15T17:26:49.922Z,20.90
2022-12-15T17:29:25.387Z,20.60
2022-12-15T17:31:52.690Z,19.93
2022-12-15T17:34:31.305Z,18.73
2022-12-15T17:37:04.420Z,19.10
2022-12-15T17:39:34.061Z,19.03
2022-12-15T17:42:02.576Z,17.33
2022-12-15T17:44:36.703Z,17.73
2022-12-15T17:47:06.803Z,17.03
2022-12-15T17:49:37.589Z,17.60
2022-12-15T17:52:07.933Z,17.57
2022-12-15T17:54:35.617Z,18.63
2022-12-15T17:57:02.626Z,17.70
2022-12-15T17:59:31.645Z,19.20
2022-12-15T18:01:58.806Z,20.57
2022-12-15T18:04:25.938Z,16.87
2022-12-15T18:06:58.049Z,18.30
2022-12-15T18:09:28.685Z,18.03
2022-12-15T18:11:55.776Z,17.73
2022-12-15T18:14:23.056Z,19.50
2022-12-15T18:16:50.236Z,18.03
2022-12-15T18:19:17.196Z,21.27
2022-12-15T18:21:44.573Z,17.97
2022-12-15T18:24:17.119Z,17.40
2022-12-15T18:26:44.425Z,16.20
2022-12-15T18:29:18.232Z,17.00
2022-12-15T18:31:48.363Z,15.83
2022-12-15T18:34:21.311Z,19.00
2022-12-15T18:36:48.792Z,19.87
2022-12-15T18:39:23.927Z,17.13
2022-12-15T18:41:54.498Z,19.43
2022-12-15T18:44:24.691Z,18.33
2022-12-15T18:46:51.979Z,17.73
2022-12-15T18:49:19.469Z,21.27
2022-12-15T18:51:47.629Z,19.07
2022-12-15T18:54:21.449Z,17.73
2022-12-15T18:56:48.964Z,18.63
2022-12-15T18:59:17.514Z,20.47
2022-12-15T19:01:45.984Z,20.57
2022-12-15T19:04:13.645Z,19.10
2022-12-15T19:06:41.470Z,20.27
2022-12-15T19:09:23.313Z,18.23
2022-12-15T19:12:16.758Z,20.33
2022-12-15T19:14:45.305Z,18.40
2022-12-15T19:17:38.832Z,18.10
2022-12-15T19:20:36.364Z,18.93
2022-12-15T19:23:04.323Z,23.93
2022-12-15T19:25:31.893Z,19.10
2022-12-15T19:28:00.045Z,20.50
2022-12-15T19:30:30.289Z,25.43
2022-12-15T19:32:57.891Z,21.23
2022-12-15T19:35:27.378Z,19.97
2022-12-15T19:37:58.084Z,21.77
2022-12-15T19:40:30.857Z,21.47
2022-12-15T19:42:59.326Z,23.57
2022-12-15T19:45:29.276Z,24.83
2022-12-15T19:47:56.669Z,22.80
2022-12-15T19:50:36.325Z,24.03
2022-12-15T19:53:07.159Z,28.10
2022-12-15T19:55:35.824Z,22.90
2022-12-15T19:58:31.167Z,24.67
2022-12-15T20:01:01.371Z,22.93
2022-12-15T20:03:29.860Z,21.43
2022-12-15T20:05:58.638Z,23.20
2022-12-15T20:08:34.573Z,23.73
2022-12-15T20:11:02.016Z,26.23
2022-12-15T20:13:29.822Z,25.37
2022-12-15T20:15:57.093Z,22.50
2022-12-15T20:18:24.108Z,27.10
2022-12-15T20:20:51.286Z,27.50
2022-12-15T20:23:29.505Z,26.53
2022-12-15T20:25:57.130Z,23.53
2022-12-15T20:28:27.194Z,26.17
2022-12-15T20:30:56.256Z,22.97
2022-12-15T20:33:24.123Z,25.37
2022-12-15T20:35:51.382Z,24.20
2022-12-15T20:38:28.718Z,22.70
2022-12-15T20:40:56.579Z,29.83
2022-12-15T20:43:25.526Z,29.30
2022-12-15T20:46:06.242Z,29.03
2022-12-15T20:48:36.670Z,29.53
2022-12-15T20:51:09.302Z,28.63
2022-12-15T20:53:37.899Z,28.87
2022-12-15T20:56:06.209Z,36.17
2022-12-15T20:58:40.734Z,35.27
2022-12-15T21:01:26.391Z,35.23
2022-12-15T21:03:57.273Z,34.40
2022-12-15T21:06:26.515Z,33.23
2022-12-15T21:08:54.030Z,30.97
2022-12-15T21:11:25.740Z,29.27
2022-12-15T21:13:55.309Z,25.27
2022-12-15T21:16:25.233Z,31.13
2022-12-15T21:21:44.900Z,28.97
2022-12-15T21:24:35.059Z,31.83
2022-12-15T21:27:02.032Z,29.47
2022-12-15T21:29:29.636Z,28.23
2022-12-15T21:31:57.333Z,27.30
2022-12-15T21:34:24.299Z,31.17
2022-12-15T21:36:55.240Z,31.67
2022-12-15T21:39:33.083Z,30.80
2022-12-15T21:42:15.063Z,28.97
2022-12-15T21:44:42.423Z,31.53
2022-12-15T21:47:47.229Z,34.10
2022-12-15T21:50:15.646Z,32.13
2022-12-15T21:52:43.651Z,31.23
2022-12-15T21:55:18.823Z,30.37
2022-12-15T21:57:45.875Z,31.37
2022-12-15T22:00:18.410Z,30.73
2022-12-15T22:02:47.133Z,33.40
2022-12-15T22:05:29.424Z,33.63
2022-12-15T22:08:00.475Z,30.00
2022-12-15T22:10:27.458Z,37.17
2022-12-15T22:12:59.518Z,32.97
2022-12-15T22:15:28.730Z,29.83
2022-12-15T22:17:56.295Z,30.20
2022-12-15T22:20:24.788Z,29.60
2022-12-15T22:22:51.999Z,31.67
2022-12-15T22:25:22.265Z,32.87
2022-12-15T22:27:50.123Z,32.27
2022-12-15T22:30:24.728Z,34.40
2022-12-15T22:32:52.067Z,33.53
2022-12-15T22:35:25.944Z,33.00
2022-12-15T22:37:56.430Z,28.87
2022-12-15T22:40:24.300Z,28.97
2022-12-15T22:42:57.908Z,24.97
2022-12-15T22:45:25.061Z,27.63
2022-12-15T22:47:53.348Z,32.37
2022-12-15T22:50:26.645Z,35.83
2022-12-15T22:52:55.019Z,41.43
2022-12-15T22:55:23.321Z,35.63
2022-12-15T22:58:01.372Z,36.30
2022-12-15T23:00:28.565Z,36.30
2022-12-15T23:05:29.467Z,38.63
2022-12-15T23:07:56.548Z,36.93
2022-12-15T23:10:42.081Z,34.67
2022-12-15T23:13:09.064Z,32.00
2022-12-15T23:15:54.860Z,35.10
2022-12-15T23:18:22.233Z,35.47
2022-12-15T23:20:49.244Z,35.43
2022-12-15T23:23:16.204Z,32.97
2022-12-15T23:25:44.155Z,37.83
2022-12-15T23:28:11.125Z,37.20
2022-12-15T23:30:38.196Z,36.03
2022-12-15T23:33:05.530Z,32.53
2022-12-15T23:35:32.615Z,31.53
2022-12-15T23:37:59.640Z,32.27
2022-12-15T23:40:26.631Z,30.73
2022-12-15T23:42:53.801Z,35.83
2022-12-15T23:45:21.109Z,35.03
2022-12-15T23:47:48.136Z,37.87
2022-12-15T23:50:15.125Z,35.00
2022-12-15T23:52:42.275Z,36.83
2022-12-15T23:55:10.225Z,36.87
2022-12-15T23:57:39.363Z,34.47
